Time;durP1;ratioP1;P1;durP2;ratioP2;P2;SDS_P1;SDS_P2;PMS_P1;PMS_P2;Temp;Humidity;BMP_temperature;BMP_pressure;BME280_temperature;BME280_humidity;BME280_pressure;Samples;Min_cycle;Max_cycle;Signal;HPM_P1;HPM_P2
2022/08/21 00:00:50;;;;;;;1.73;1.40;;;17.10;86.50;;;;;;5075578;28;20095;-57
2022/08/21 00:03:16;;;;;;;2.78;1.50;;;17.00;86.70;;;;;;5074121;28;20035;-56
2022/08/21 00:05:46;;;;;;;4.45;1.40;;;17.00;87.00;;;;;;5073869;28;20412;-56
2022/08/21 00:08:12;;;;;;;2.25;1.30;;;16.90;87.20;;;;;;5082688;28;20021;-58
2022/08/21 00:10:43;;;;;;;2.33;1.42;;;16.90;87.30;;;;;;5076526;28;20433;-57
2022/08/21 00:13:10;;;;;;;3.35;1.60;;;16.90;87.40;;;;;;5073478;28;20391;-57
2022/08/21 00:15:37;;;;;;;2.67;1.30;;;16.90;87.60;;;;;;5074258;28;20035;-57
2022/08/21 00:18:04;;;;;;;3.35;1.52;;;16.90;87.80;;;;;;5071221;28;20024;-57
2022/08/21 00:20:30;;;;;;;1.65;1.17;;;16.80;87.90;;;;;;5071776;28;20392;-56
2022/08/21 00:22:56;;;;;;;1.95;1.42;;;16.80;88.20;;;;;;5080319;28;20482;-57
2022/08/21 00:25:21;;;;;;;2.88;1.50;;;16.80;88.60;;;;;;5080769;28;20024;-57
2022/08/21 00:27:47;;;;;;;2.40;1.75;;;16.80;88.70;;;;;;5081004;28;20028;-56
2022/08/21 00:30:15;;;;;;;2.60;1.60;;;16.80;88.80;;;;;;5076208;28;20024;-57
2022/08/21 00:32:41;;;;;;;3.70;1.75;;;16.80;88.90;;;;;;5076163;28;20024;-56
2022/08/21 00:35:11;;;;;;;2.03;1.38;;;16.70;89.10;;;;;;5087397;28;20019;-57
2022/08/21 00:37:37;;;;;;;;;;;16.70;89.30;;;;;;5086719;28;20073;-57
2022/08/21 00:40:04;;;;;;;2.97;1.42;;;16.60;89.20;;;;;;5079372;28;20483;-56
2022/08/21 00:42:30;;;;;;;2.13;1.30;;;16.50;89.80;;;;;;5083503;28;20048;-57
2022/08/21 00:44:55;;;;;;;3.63;1.83;;;16.50;89.90;;;;;;5084730;28;20020;-57
2022/08/21 00:47:21;;;;;;;5.07;1.92;;;16.50;90.00;;;;;;5075408;28;20028;-55
2022/08/21 00:49:47;;;;;;;3.40;1.80;;;16.50;90.00;;;;;;5077791;28;20040;-56
2022/08/21 00:52:18;;;;;;;5.57;2.40;;;16.50;90.00;;;;;;5077366;28;20025;-57
2022/08/21 00:54:45;;;;;;;4.55;2.17;;;16.50;90.00;;;;;;5080464;28;20514;-56
2022/08/21 00:57:20;;;;;;;4.30;2.00;;;16.50;90.10;;;;;;5083807;28;20644;-56
2022/08/21 00:59:49;;;;;;;2.53;1.83;;;16.40;90.10;;;;;;5077173;28;20043;-57
2022/08/21 01:02:16;;;;;;;2.50;2.03;;;16.40;90.20;;;;;;5076330;28;20124;-57
2022/08/21 01:04:42;;;;;;;2.88;2.17;;;16.40;90.30;;;;;;5076571;28;20033;-57
2022/08/21 01:07:08;;;;;;;4.18;1.40;;;16.30;90.40;;;;;;5083413;28;20025;-56
2022/08/21 01:09:34;;;;;;;2.38;1.33;;;16.30;90.60;;;;;;5072888;28;20050;-57
2022/08/21 01:12:00;;;;;;;3.08;1.35;;;16.20;90.80;;;;;;5080701;28;20031;-57
2022/08/21 01:14:28;;;;;;;1.88;1.10;;;16.20;91.00;;;;;;5076297;28;20095;-56
2022/08/21 01:16:55;;;;;;;1.80;1.13;;;16.20;91.10;;;;;;5075042;28;20024;-57
2022/08/21 01:19:21;;;;;;;2.03;0.88;;;16.10;91.20;;;;;;5079760;28;20023;-56
2022/08/21 01:21:47;;;;;;;2.40;0.90;;;16.10;91.30;;;;;;5082337;28;20453;-56
2022/08/21 01:24:13;;;;;;;1.92;1.02;;;16.10;91.40;;;;;;5073407;28;20031;-57
2022/08/21 01:26:40;;;;;;;2.03;1.40;;;16.10;91.50;;;;;;5089416;28;20119;-57
2022/08/21 01:29:15;;;;;;;3.17;1.63;;;16.10;91.50;;;;;;5079375;28;20034;-57
2022/08/21 01:31:41;;;;;;;3.80;2.05;;;16.10;91.60;;;;;;5088917;28;20023;-56
2022/08/21 01:34:07;;;;;;;2.78;1.80;;;16.00;91.60;;;;;;5075897;28;20017;-57
2022/08/21 01:36:33;;;;;;;3.60;1.67;;;16.00;91.70;;;;;;5078970;28;20028;-56
2022/08/21 01:38:59;;;;;;;2.63;1.88;;;16.00;91.70;;;;;;5074722;28;20065;-57
2022/08/21 01:41:24;;;;;;;2.22;1.75;;;16.00;91.70;;;;;;5081628;28;20058;-57
2022/08/21 01:43:50;;;;;;;3.97;1.60;;;16.00;91.80;;;;;;5079160;28;20036;-56
2022/08/21 01:46:16;;;;;;;2.28;1.77;;;16.00;91.90;;;;;;5086930;28;20035;-57
2022/08/21 01:48:42;;;;;;;4.47;1.88;;;16.00;92.00;;;;;;5083333;28;20028;-56
2022/08/21 01:51:08;;;;;;;4.03;2.13;;;15.90;92.10;;;;;;5075789;28;20161;-56
2022/08/21 01:53:36;;;;;;;2.60;2.03;;;15.90;92.20;;;;;;5079473;28;20028;-57
2022/08/21 01:56:04;;;;;;;4.05;2.70;;;15.90;92.30;;;;;;5079025;28;20028;-56
2022/08/21 01:58:30;;;;;;;3.78;2.50;;;15.90;92.40;;;;;;5076529;28;20435;-57
2022/08/21 02:00:56;;;;;;;4.40;2.80;;;15.90;92.40;;;;;;5081924;28;20028;-57
2022/08/21 02:03:21;;;;;;;3.70;2.55;;;15.90;92.50;;;;;;5074257;28;20047;-56
2022/08/21 02:05:47;;;;;;;2.38;2.17;;;15.90;92.60;;;;;;5077880;28;20032;-60
2022/08/21 02:08:13;;;;;;;3.88;2.90;;;15.90;92.60;;;;;;5088307;28;20023;-58
2022/08/21 02:10:38;;;;;;;3.95;2.90;;;15.80;92.60;;;;;;5076718;28;20480;-57
2022/08/21 02:13:04;;;;;;;5.45;2.90;;;15.80;92.80;;;;;;5082546;28;20024;-56
2022/08/21 02:15:31;;;;;;;4.40;2.70;;;15.70;92.90;;;;;;5079449;28;20032;-57
2022/08/21 02:18:00;;;;;;;3.72;2.42;;;15.70;93.30;;;;;;5078964;28;20024;-58
2022/08/21 02:20:42;;;;;;;3.63;2.58;;;15.70;93.00;;;;;;5069748;28;20416;-57
2022/08/21 02:23:10;;;;;;;2.55;2.08;;;15.70;93.10;;;;;;5081405;28;20028;-57
2022/08/21 02:25:35;;;;;;;3.17;2.17;;;15.70;93.20;;;;;;5091460;28;20055;-57
2022/08/21 02:28:05;;;;;;;2.80;2.25;;;15.70;93.30;;;;;;5077761;28;20060;-57
2022/08/21 02:30:34;;;;;;;3.35;2.58;;;15.70;93.30;;;;;;5072581;28;20033;-56
2022/08/21 02:33:00;;;;;;;4.57;2.37;;;15.60;93.40;;;;;;5074246;28;20013;-57
2022/08/21 02:35:27;;;;;;;3.40;2.60;;;15.60;93.40;;;;;;5076208;28;20028;-57
2022/08/21 02:38:02;;;;;;;4.40;2.78;;;15.60;93.50;;;;;;5073367;28;20031;-57
2022/08/21 02:40:34;;;;;;;4.60;2.58;;;15.60;93.50;;;;;;5077566;28;20028;-57
2022/08/21 02:43:03;;;;;;;3.45;2.58;;;15.60;93.60;;;;;;5087194;28;20035;-56
2022/08/21 02:45:30;;;;;;;5.65;2.63;;;15.50;93.60;;;;;;5070421;28;20047;-57
2022/08/21 02:47:59;;;;;;;3.92;2.42;;;15.50;93.70;;;;;;5073642;28;20432;-57
2022/08/21 02:50:28;;;;;;;;;;;15.50;93.80;;;;;;5089405;28;20059;-57
2022/08/21 02:52:54;;;;;;;2.75;1.70;;;15.40;94.00;;;;;;5072417;28;20357;-57
2022/08/21 02:55:21;;;;;;;3.65;2.35;;;15.40;94.00;;;;;;5077207;28;20111;-57
2022/08/21 02:57:48;;;;;;;3.50;2.05;;;15.30;94.10;;;;;;5076393;28;20021;-58
2022/08/21 03:00:15;;;;;;;2.30;1.65;;;15.30;94.20;;;;;;5078472;28;20020;-56
2022/08/21 03:02:41;;;;;;;2.00;1.42;;;15.30;94.20;;;;;;5075655;28;20076;-55
2022/08/21 03:05:09;;;;;;;1.35;1.10;;;15.30;94.30;;;;;;5079658;28;20139;-57
2022/08/21 03:07:34;;;;;;;1.48;1.05;;;15.30;94.40;;;;;;5078919;28;20071;-57
2022/08/21 03:10:00;;;;;;;1.70;1.15;;;15.30;94.50;;;;;;5075960;28;20059;-57
2022/08/21 03:12:26;;;;;;;1.70;1.23;;;15.20;94.60;;;;;;5074713;28;20031;-57
2022/08/21 03:14:51;;;;;;;2.85;1.63;;;15.20;94.70;;;;;;5081219;28;20020;-56
2022/08/21 03:17:17;;;;;;;1.70;1.38;;;15.20;94.70;;;;;;5076819;28;20036;-57
2022/08/21 03:19:42;;;;;;;2.15;1.60;;;15.20;94.80;;;;;;5076459;28;20024;-57
2022/08/21 03:22:08;;;;;;;2.28;1.40;;;15.10;94.80;;;;;;5079552;28;20028;-57
2022/08/21 03:24:33;;;;;;;2.15;1.40;;;15.10;94.90;;;;;;5087016;28;20016;-57
2022/08/21 03:26:59;;;;;;;1.63;1.23;;;15.10;95.00;;;;;;5082190;28;20042;-57
2022/08/21 03:29:25;;;;;;;3.03;1.73;;;15.10;95.00;;;;;;5082081;28;20466;-57
2022/08/21 03:31:53;;;;;;;1.85;1.60;;;15.10;95.10;;;;;;5080912;28;20744;-57
2022/08/21 03:34:18;;;;;;;2.45;1.60;;;15.00;95.10;;;;;;5086976;28;20474;-58
2022/08/21 03:36:44;;;;;;;3.42;2.33;;;15.10;95.10;;;;;;5067491;28;20023;-57
2022/08/21 03:39:09;;;;;;;2.90;2.42;;;15.00;95.00;;;;;;5074093;28;20077;-57
2022/08/21 03:41:35;;;;;;;3.65;2.63;;;15.00;95.00;;;;;;5076874;28;20067;-57
2022/08/21 03:44:01;;;;;;;4.95;2.65;;;15.00;94.90;;;;;;5083983;28;20040;-57
2022/08/21 03:46:26;;;;;;;5.65;3.45;;;15.00;94.90;;;;;;5074496;28;20064;-57
2022/08/21 03:48:52;;;;;;;3.97;3.03;;;15.00;94.90;;;;;;5077064;28;20486;-57
2022/08/21 03:51:18;;;;;;;4.30;2.92;;;15.00;94.90;;;;;;5077654;28;20661;-57
2022/08/21 03:53:44;;;;;;;3.80;2.90;;;15.00;95.00;;;;;;5086654;28;20420;-57
2022/08/21 03:56:10;;;;;;;3.35;2.70;;;14.90;95.00;;;;;;5076593;28;20027;-57
2022/08/21 03:58:38;;;;;;;2.97;2.35;;;14.90;95.10;;;;;;5077977;28;20032;-57
2022/08/21 04:01:06;;;;;;;4.43;2.58;;;14.90;95.10;;;;;;5072518;28;20024;-57
2022/08/21 04:03:33;;;;;;;3.42;2.53;;;14.90;95.20;;;;;;5084114;28;20024;-58
2022/08/21 04:05:59;;;;;;;5.43;3.05;;;14.90;95.30;;;;;;5076976;28;20066;-56
2022/08/21 04:08:24;;;;;;;5.53;3.55;;;14.80;95.30;;;;;;5086170;28;20470;-57
2022/08/21 04:10:53;;;;;;;3.85;2.92;;;14.80;95.30;;;;;;5086005;28;20393;-57
2022/08/21 04:13:19;;;;;;;3.55;2.90;;;14.80;95.40;;;;;;5088498;28;20032;-57
2022/08/21 04:15:45;;;;;;;4.07;3.03;;;14.80;95.40;;;;;;5082215;28;20035;-57
2022/08/21 04:18:10;;;;;;;6.90;3.17;;;14.80;95.50;;;;;;5085808;28;20024;-57
2022/08/21 04:20:36;;;;;;;3.08;2.75;;;14.70;95.50;;;;;;5086936;28;20030;-58
2022/08/21 04:23:03;;;;;;;4.20;3.05;;;14.70;95.60;;;;;;5088372;28;20439;-57
2022/08/21 04:25:29;;;;;;;3.45;2.92;;;14.70;95.60;;;;;;5085796;28;20029;-57
2022/08/21 04:27:55;;;;;;;3.95;3.05;;;14.70;95.70;;;;;;5085967;28;20426;-56
2022/08/21 04:30:21;;;;;;;3.00;2.70;;;14.60;95.80;;;;;;5088167;28;20521;-56
2022/08/21 04:32:50;;;;;;;5.03;2.92;;;14.60;95.90;;;;;;5088440;28;20067;-56
2022/08/21 04:35:18;;;;;;;3.03;2.20;;;14.60;95.90;;;;;;5086259;28;20066;-57
2022/08/21 04:37:43;;;;;;;2.83;1.98;;;14.60;96.00;;;;;;5071575;28;20108;-57
2022/08/21 04:40:11;;;;;;;2.28;1.58;;;14.60;96.10;;;;;;5088598;28;20142;-56
2022/08/21 04:43:07;;;;;;;3.80;1.85;;;14.50;96.10;;;;;;5088064;28;20567;-57
2022/08/21 04:45:42;;;;;;;5.97;2.05;;;14.50;96.10;;;;;;5083733;28;20121;-57
2022/08/21 04:48:09;;;;;;;2.78;1.95;;;14.50;96.30;;;;;;5086251;28;20060;-56
2022/08/21 04:50:39;;;;;;;4.10;2.47;;;14.40;96.40;;;;;;5088292;28;20094;-56
2022/08/21 04:53:10;;;;;;;;;;;14.50;96.50;;;;;;5074370;28;20420;-57
2022/08/21 04:55:37;;;;;;;3.47;2.15;;;14.40;96.40;;;;;;5083505;28;19908;-57
2022/08/21 04:58:04;;;;;;;8.13;4.32;;;14.40;96.60;;;;;;5087758;28;20017;-57
2022/08/21 05:00:30;;;;;;;9.25;6.13;;;14.30;96.70;;;;;;5085312;28;20030;-56
2022/08/21 05:02:58;;;;;;;7.07;5.63;;;14.30;97.10;;;;;;5085516;28;20103;-57
2022/08/21 05:05:27;;;;;;;5.53;4.95;;;14.20;97.50;;;;;;5079741;28;20019;-57
2022/08/21 05:07:53;;;;;;;5.78;4.75;;;14.20;97.70;;;;;;5088398;28;20020;-57
2022/08/21 05:10:19;;;;;;;4.25;3.75;;;14.20;97.80;;;;;;5104591;28;20035;-57
2022/08/21 05:12:45;;;;;;;6.75;3.47;;;14.20;97.90;;;;;;5089344;28;20020;-58
2022/08/21 05:15:12;;;;;;;6.55;4.70;;;14.20;97.90;;;;;;5089142;28;20027;-57
2022/08/21 05:17:38;;;;;;;10.02;5.60;;;14.20;98.10;;;;;;5089216;28;20470;-57
2022/08/21 05:20:04;;;;;;;8.52;6.43;;;14.20;98.20;;;;;;5091686;28;20031;-57
2022/08/21 05:22:30;;;;;;;12.50;8.32;;;14.20;98.40;;;;;;5091784;28;20111;-57
2022/08/21 05:24:57;;;;;;;8.48;7.10;;;14.10;98.90;;;;;;5088842;28;20426;-56
2022/08/21 05:27:22;;;;;;;7.38;6.18;;;14.20;99.10;;;;;;5091099;28;20020;-57
2022/08/21 05:29:48;;;;;;;9.10;5.93;;;14.20;99.20;;;;;;5086578;28;20042;-56
2022/08/21 05:32:14;;;;;;;9.27;6.43;;;14.20;99.30;;;;;;5087983;28;20020;-56
2022/08/21 05:34:39;;;;;;;6.10;5.50;;;14.20;99.60;;;;;;5093763;28;20058;-57
2022/08/21 05:37:05;;;;;;;9.18;7.53;;;14.30;99.30;;;;;;5091373;28;20024;-57
2022/08/21 05:39:31;;;;;;;13.13;8.73;;;14.30;99.40;;;;;;5091771;28;20031;-57
2022/08/21 05:41:57;;;;;;;8.32;7.45;;;14.30;99.50;;;;;;5087937;28;20110;-57
2022/08/21 05:44:22;;;;;;;12.15;8.60;;;14.30;99.70;;;;;;5094080;28;20063;-57
2022/08/21 05:46:48;;;;;;;10.93;9.68;;;14.30;99.80;;;;;;5093851;28;20035;-57
2022/08/21 05:49:13;;;;;;;13.05;9.10;;;14.40;99.90;;;;;;5094145;28;20071;-57
2022/08/21 05:51:40;;;;;;;12.20;8.40;;;14.40;99.90;;;;;;5094510;28;20032;-57
2022/08/21 05:54:06;;;;;;;12.48;9.73;;;14.40;99.90;;;;;;5094854;28;20016;-57
2022/08/21 05:56:32;;;;;;;12.07;9.63;;;14.50;99.90;;;;;;5093204;28;20072;-57
2022/08/21 05:58:57;;;;;;;10.32;9.18;;;14.50;99.90;;;;;;5092854;28;20024;-57
2022/08/21 06:01:24;;;;;;;13.90;10.50;;;14.50;99.90;;;;;;5093407;28;20024;-57
2022/08/21 06:03:49;;;;;;;12.85;10.18;;;14.60;99.90;;;;;;5081071;28;20024;-57
2022/08/21 06:06:15;;;;;;;13.95;11.13;;;14.60;99.90;;;;;;5087341;28;20151;-57
2022/08/21 06:08:41;;;;;;;11.75;9.68;;;14.60;99.90;;;;;;5092318;28;20021;-57
2022/08/21 06:11:08;;;;;;;11.60;9.13;;;14.70;99.90;;;;;;5094638;28;20035;-56
2022/08/21 06:13:34;;;;;;;11.85;8.65;;;14.70;99.90;;;;;;5094213;28;20031;-57
2022/08/21 06:16:12;;;;;;;9.80;8.00;;;14.80;99.90;;;;;;5094514;28;20031;-57
2022/08/21 06:18:39;;;;;;;11.75;9.07;;;14.90;99.90;;;;;;5086459;28;20048;-57
2022/08/21 06:21:06;;;;;;;12.05;9.45;;;15.00;99.90;;;;;;5087979;28;20093;-56
2022/08/21 06:23:32;;;;;;;13.85;9.88;;;15.00;99.90;;;;;;5094440;28;20024;-57
2022/08/21 06:25:58;;;;;;;10.18;7.75;;;15.10;99.90;;;;;;5093127;28;20043;-57
2022/08/21 06:28:24;;;;;;;9.05;6.88;;;15.10;99.90;;;;;;5094158;28;20109;-57
2022/08/21 06:30:49;;;;;;;7.28;6.57;;;15.20;99.90;;;;;;5094020;28;20083;-56
2022/08/21 06:33:15;;;;;;;8.70;6.57;;;15.30;99.90;;;;;;5094141;28;20028;-56
2022/08/21 06:35:40;;;;;;;12.88;6.97;;;15.30;99.90;;;;;;5093944;28;20027;-56
2022/08/21 06:38:06;;;;;;;9.55;6.60;;;15.40;99.90;;;;;;5094431;28;20024;-57
2022/08/21 06:40:32;;;;;;;11.73;8.10;;;15.50;99.90;;;;;;5093459;28;20485;-56
2022/08/21 06:43:04;;;;;;;8.30;6.45;;;15.50;99.90;;;;;;5094016;28;20505;-56
2022/08/21 06:45:30;;;;;;;10.07;6.82;;;15.60;99.90;;;;;;5093361;28;20076;-57
2022/08/21 06:47:55;;;;;;;9.82;6.82;;;15.70;99.90;;;;;;5094199;28;20070;-57
2022/08/21 06:50:21;;;;;;;12.88;6.47;;;15.80;99.90;;;;;;5093489;28;20028;-57
2022/08/21 06:52:47;;;;;;;11.73;7.30;;;15.80;99.90;;;;;;5093541;28;20403;-56
2022/08/21 06:55:13;;;;;;;10.38;6.03;;;15.90;99.90;;;;;;5092855;28;20111;-56
2022/08/21 06:57:39;;;;;;;11.80;7.25;;;16.00;99.90;;;;;;5092342;28;20024;-57
2022/08/21 07:00:06;;;;;;;8.50;6.22;;;16.00;99.80;;;;;;5092247;28;20059;-57
2022/08/21 07:02:33;;;;;;;7.82;5.97;;;16.10;99.70;;;;;;5092250;28;20027;-57
2022/08/21 07:04:58;;;;;;;9.13;6.70;;;16.20;99.70;;;;;;5092027;28;20043;-56
2022/08/21 07:07:24;;;;;;;13.20;5.93;;;16.20;99.60;;;;;;5088103;28;20024;-57
2022/08/21 07:09:49;;;;;;;10.93;6.80;;;16.30;99.60;;;;;;5092259;28;20020;-56
2022/08/21 07:12:15;;;;;;;8.93;5.15;;;16.40;99.60;;;;;;5087107;28;20024;-55
2022/08/21 07:14:41;;;;;;;11.57;5.70;;;16.50;99.50;;;;;;5090328;28;20016;-57
2022/08/21 07:17:06;;;;;;;8.05;5.82;;;16.60;99.40;;;;;;5086177;28;20035;-57
2022/08/21 07:19:32;;;;;;;11.13;5.18;;;16.70;99.40;;;;;;5083736;28;20020;-57
2022/08/21 07:22:01;;;;;;;12.38;6.68;;;16.80;99.40;;;;;;5089193;28;20031;-57
2022/08/21 07:24:26;;;;;;;10.97;6.30;;;16.90;99.40;;;;;;5091922;28;20028;-57
2022/08/21 07:26:52;;;;;;;9.93;5.63;;;16.90;99.30;;;;;;5089061;28;20496;-56
2022/08/21 07:29:18;;;;;;;11.18;5.35;;;17.00;99.20;;;;;;5092179;28;20035;-56
2022/08/21 07:31:44;;;;;;;11.95;5.70;;;17.10;99.10;;;;;;5093232;28;20025;-57
2022/08/21 07:34:09;;;;;;;13.30;5.72;;;17.20;99.00;;;;;;5091709;28;20024;-57
2022/08/21 07:36:35;;;;;;;8.88;4.97;;;17.40;99.00;;;;;;5087905;28;20028;-57
2022/08/21 07:39:00;;;;;;;12.20;5.97;;;17.40;98.80;;;;;;5088311;28;20070;-57
2022/08/21 07:41:28;;;;;;;13.45;6.03;;;17.60;98.70;;;;;;5092736;28;20055;-57
2022/08/21 07:43:57;;;;;;;7.80;4.45;;;17.70;98.60;;;;;;5092756;28;20497;-57
2022/08/21 07:46:23;;;;;;;9.82;5.57;;;17.80;98.60;;;;;;5075823;28;20086;-57
2022/08/21 07:48:48;;;;;;;10.60;5.35;;;17.90;98.50;;;;;;5076141;28;20019;-57
2022/08/21 07:51:16;;;;;;;7.30;5.25;;;17.90;98.30;;;;;;5092603;28;20024;-57
2022/08/21 07:53:47;;;;;;;7.50;4.82;;;18.00;98.20;;;;;;5092437;28;20023;-57
2022/08/21 07:56:13;;;;;;;9.35;4.20;;;18.00;98.10;;;;;;5082039;28;20073;-57
2022/08/21 07:58:38;;;;;;;11.07;4.78;;;18.10;98.10;;;;;;5081539;28;20016;-57
2022/08/21 08:01:05;;;;;;;11.30;4.90;;;18.10;98.00;;;;;;5084658;28;20469;-57
2022/08/21 08:03:31;;;;;;;11.27;5.35;;;18.10;97.90;;;;;;5091021;28;20088;-57
2022/08/21 08:05:59;;;;;;;7.63;4.50;;;18.20;97.90;;;;;;5089304;28;20032;-57
2022/08/21 08:08:25;;;;;;;11.00;5.00;;;18.30;97.80;;;;;;5091046;28;20507;-57
2022/08/21 08:10:53;;;;;;;9.02;4.63;;;18.30;97.70;;;;;;5087695;28;20058;-56
2022/08/21 08:13:18;;;;;;;11.63;4.60;;;18.40;97.50;;;;;;5087711;28;20028;-55
2022/08/21 08:15:44;;;;;;;9.82;4.45;;;18.50;97.40;;;;;;5092354;28;20024;-57
2022/08/21 08:18:10;;;;;;;6.90;3.40;;;18.60;97.30;;;;;;5087247;28;20020;-58
2022/08/21 08:20:35;;;;;;;9.02;4.20;;;18.70;97.20;;;;;;5088033;28;20111;-57
2022/08/21 08:23:01;;;;;;;9.38;3.90;;;18.80;97.00;;;;;;5092030;28;20087;-57
2022/08/21 08:25:27;;;;;;;6.63;3.40;;;18.80;96.90;;;;;;5086424;28;20382;-56
2022/08/21 08:27:53;;;;;;;8.45;3.20;;;18.90;96.80;;;;;;5084316;28;20028;-58
2022/08/21 08:30:21;;;;;;;8.65;4.00;;;19.00;96.70;;;;;;5081273;28;20029;-58
2022/08/21 08:32:48;;;;;;;6.40;3.67;;;19.10;96.60;;;;;;5092044;28;20054;-57
2022/08/21 08:35:14;;;;;;;10.70;3.50;;;19.20;96.50;;;;;;5092232;28;20035;-58
2022/08/21 08:37:40;;;;;;;11.60;4.22;;;19.30;96.30;;;;;;5091884;28;20065;-58
2022/08/21 08:40:11;;;;;;;12.38;4.88;;;19.30;96.00;;;;;;5090788;28;20058;-56
2022/08/21 08:42:36;;;;;;;6.47;2.95;;;19.40;95.70;;;;;;5094498;28;20405;-57
2022/08/21 08:45:09;;;;;;;8.35;3.08;;;19.50;95.70;;;;;;5083770;28;20486;-58
2022/08/21 08:47:40;;;;;;;14.00;5.53;;;19.60;95.60;;;;;;5083018;28;20066;-57
2022/08/21 08:50:13;;;;;;;12.48;3.40;;;19.70;95.20;;;;;;5081733;28;20470;-58
2022/08/21 08:52:51;;;;;;;7.20;2.85;;;19.70;95.00;;;;;;5084630;28;20073;-57
2022/08/21 08:55:25;;;;;;;8.68;3.35;;;19.80;95.00;;;;;;5096140;28;20048;-58
2022/08/21 08:57:52;;;;;;;9.57;3.15;;;19.90;94.60;;;;;;5095891;28;20061;-56
2022/08/21 09:00:20;;;;;;;7.18;2.90;;;20.00;94.30;;;;;;5078159;28;20024;-58
2022/08/21 09:02:46;;;;;;;7.15;2.45;;;20.10;94.20;;;;;;5095474;28;20097;-57
2022/08/21 09:05:24;;;;;;;5.22;2.08;;;20.10;94.00;;;;;;5094054;28;20024;-57
2022/08/21 09:08:10;;;;;;;4.75;1.90;;;20.30;93.70;;;;;;5092294;28;20493;-57
2022/08/21 09:10:51;;;;;;;8.82;2.50;;;20.40;93.40;;;;;;5071178;28;20161;-58
2022/08/21 09:13:48;;;;;;;6.95;2.45;;;20.50;93.00;;;;;;5094189;28;20393;-57
2022/08/21 09:16:32;;;;;;;7.13;1.92;;;20.60;92.60;;;;;;5053006;28;20074;-57
2022/08/21 09:19:11;;;;;;;6.57;2.00;;;20.70;92.50;;;;;;5093957;28;20363;-58
2022/08/21 09:22:13;;;;;;;8.85;2.17;;;20.80;92.10;;;;;;5094338;28;20020;-58
2022/08/21 09:24:44;;;;;;;8.25;2.30;;;20.90;91.70;;;;;;5091292;28;20081;-58
2022/08/21 09:27:11;;;;;;;10.60;3.63;;;20.90;90.40;;;;;;5084626;28;20039;-57
2022/08/21 09:29:40;;;;;;;7.65;2.22;;;21.00;90.30;;;;;;5095245;28;20405;-57
2022/08/21 09:32:24;;;;;;;5.72;1.77;;;21.10;90.50;;;;;;5095675;28;20028;-57
2022/08/21 09:35:05;;;;;;;7.15;1.73;;;21.30;90.30;;;;;;5075207;28;20020;-58
2022/08/21 09:37:34;;;;;;;9.43;1.70;;;21.40;90.00;;;;;;5091686;28;20099;-58
2022/08/21 09:40:02;;;;;;;5.28;1.50;;;21.50;89.40;;;;;;5093409;28;20028;-58
2022/08/21 09:42:33;;;;;;;6.32;2.08;;;21.60;89.10;;;;;;5093490;28;20059;-57
2022/08/21 09:45:13;;;;;;;5.68;1.80;;;21.80;87.80;;;;;;5092795;28;20028;-57
2022/08/21 09:47:40;;;;;;;4.47;1.20;;;21.80;86.10;;;;;;5092802;28;20027;-58
2022/08/21 09:50:15;;;;;;;5.55;1.48;;;21.80;86.30;;;;;;5093801;28;20048;-58
2022/08/21 09:52:50;;;;;;;6.93;1.52;;;22.00;85.10;;;;;;5091863;28;20024;-57
2022/08/21 09:58:08;;;;;;;6.10;1.05;;;22.20;83.80;;;;;;5067796;28;20115;-57
2022/08/21 10:00:35;;;;;;;5.75;1.90;;;22.40;83.60;;;;;;5089471;28;20099;-57
2022/08/21 10:03:14;;;;;;;6.55;1.80;;;22.50;81.10;;;;;;5094753;28;20420;-57
2022/08/21 10:05:49;;;;;;;6.32;1.60;;;22.50;81.30;;;;;;5094568;28;20048;-58
2022/08/21 10:08:19;;;;;;;9.23;2.25;;;22.50;81.20;;;;;;5093638;28;20103;-57
2022/08/21 10:10:45;;;;;;;6.45;2.08;;;22.60;79.50;;;;;;5089285;28;20048;-57
2022/08/21 10:13:19;;;;;;;4.28;1.25;;;22.70;80.20;;;;;;5088018;28;20043;-57
2022/08/21 10:16:03;;;;;;;6.50;0.95;;;22.90;80.70;;;;;;5094198;28;20074;-58
2022/08/21 10:18:42;;;;;;;4.32;1.10;;;23.10;79.80;;;;;;5089491;28;20028;-57
2022/08/21 10:21:14;;;;;;;7.53;1.67;;;23.40;79.30;;;;;;5091861;28;20016;-57
2022/08/21 10:24:18;;;;;;;6.95;1.40;;;23.50;78.20;;;;;;5090803;28;20028;-57
2022/08/21 10:27:15;;;;;;;4.03;1.10;;;23.70;78.00;;;;;;5080548;28;20029;-57
2022/08/21 10:29:49;;;;;;;3.80;0.88;;;23.90;77.20;;;;;;5082783;28;20056;-58
2022/08/21 10:32:34;;;;;;;5.22;1.20;;;24.10;76.50;;;;;;5091384;28;20024;-58
2022/08/21 10:35:12;;;;;;;6.63;1.60;;;24.30;74.80;;;;;;5094196;28;20034;-58
2022/08/21 10:38:10;;;;;;;3.70;0.98;;;24.40;73.90;;;;;;5093839;28;20024;-57
2022/08/21 10:40:51;;;;;;;4.47;0.70;;;24.50;73.40;;;;;;5092656;28;20039;-58
2022/08/21 10:43:38;;;;;;;5.22;1.10;;;24.70;72.30;;;;;;5105406;28;20024;-58
2022/08/21 10:46:18;;;;;;;4.63;1.20;;;24.90;70.30;;;;;;5082220;28;20028;-58
2022/08/21 10:49:13;;;;;;;4.68;1.20;;;24.80;69.70;;;;;;5091128;28;20083;-58
2022/08/21 10:52:08;;;;;;;4.13;1.20;;;24.70;70.00;;;;;;5089449;28;20118;-58
2022/08/21 10:55:10;;;;;;;3.92;1.25;;;24.90;70.50;;;;;;5092939;28;20035;-58
2022/08/21 10:57:58;;;;;;;4.57;1.10;;;25.00;70.60;;;;;;5080353;28;20032;-58
2022/08/21 11:00:36;;;;;;;3.00;1.20;;;25.00;70.70;;;;;;5087673;28;20065;-58
2022/08/21 11:03:12;;;;;;;3.88;0.98;;;25.10;70.30;;;;;;5086125;28;20024;-58
2022/08/21 11:05:49;;;;;;;2.95;0.77;;;25.10;70.20;;;;;;5086577;28;20029;-57
2022/08/21 11:08:20;;;;;;;3.20;0.80;;;25.30;70.60;;;;;;5092350;28;20039;-58
2022/08/21 11:11:08;;;;;;;4.03;0.95;;;25.70;70.90;;;;;;5086520;28;20052;-58
2022/08/21 11:13:51;;;;;;;2.63;0.85;;;26.70;69.70;;;;;;5092875;28;20366;-58
2022/08/21 11:16:45;;;;;;;5.38;1.10;;;27.60;66.50;;;;;;5075015;28;20063;-58
2022/08/21 11:19:15;;;;;;;3.35;0.95;;;28.00;63.60;;;;;;5079435;28;20028;-58
2022/08/21 11:21:56;;;;;;;2.53;0.60;;;28.50;61.80;;;;;;5081625;28;20160;-58
2022/08/21 11:24:46;;;;;;;2.42;0.70;;;28.80;60.40;;;;;;5087766;28;20020;-58
2022/08/21 11:27:43;;;;;;;4.15;1.40;;;29.10;60.10;;;;;;5086238;28;20069;-58
2022/08/21 11:30:10;;;;;;;3.20;0.80;;;29.40;59.00;;;;;;5092417;28;20024;-58
2022/08/21 11:33:06;;;;;;;4.35;0.80;;;29.50;57.40;;;;;;5089189;28;20054;-58
2022/08/21 11:36:11;;;;;;;4.60;1.00;;;29.50;57.20;;;;;;5087533;28;20024;-58
2022/08/21 11:38:44;;;;;;;3.50;0.80;;;29.60;55.50;;;;;;5088989;28;20036;-58
2022/08/21 11:41:28;;;;;;;1.50;0.68;;;29.70;55.50;;;;;;5080644;28;20122;-57
2022/08/21 11:44:17;;;;;;;3.40;0.90;;;29.70;55.00;;;;;;5091588;28;20023;-58
2022/08/21 11:47:00;;;;;;;;;;;29.80;54.10;;;;;;5091925;28;20031;-58
2022/08/21 11:49:41;;;;;;;3.65;0.85;;;29.80;54.30;;;;;;5087899;28;19961;-58
2022/08/21 11:52:28;;;;;;;2.55;0.70;;;29.90;53.50;;;;;;5089498;28;20016;-58
2022/08/21 11:55:03;;;;;;;3.92;0.88;;;29.90;53.30;;;;;;5080096;28;20041;-58
2022/08/21 11:57:38;;;;;;;5.28;0.88;;;30.10;53.00;;;;;;5091210;28;20095;-58
2022/08/21 12:00:17;;;;;;;2.67;0.82;;;30.10;52.60;;;;;;5089688;28;20477;-58
2022/08/21 12:02:51;;;;;;;3.58;0.70;;;30.10;52.40;;;;;;5090260;28;20070;-58
2022/08/21 12:05:45;;;;;;;1.50;0.60;;;30.20;51.80;;;;;;5087789;28;20028;-58
2022/08/21 12:08:26;;;;;;;1.90;0.70;;;30.20;51.60;;;;;;5087722;28;20032;-58
2022/08/21 12:11:06;;;;;;;2.65;0.80;;;30.00;51.10;;;;;;5092592;28;20036;-58
2022/08/21 12:13:39;;;;;;;2.70;0.70;;;29.90;51.70;;;;;;5079883;28;20071;-57
2022/08/21 12:16:10;;;;;;;2.28;0.80;;;29.90;52.00;;;;;;5088097;28;20012;-58
2022/08/21 12:18:37;;;;;;;2.10;0.90;;;30.10;51.30;;;;;;5079916;28;20025;-58
2022/08/21 12:21:26;;;;;;;2.55;0.70;;;30.10;50.90;;;;;;5092460;28;20042;-59
2022/08/21 12:24:04;;;;;;;2.13;0.63;;;30.20;50.30;;;;;;5084950;28;20016;-58
2022/08/21 12:26:47;;;;;;;1.98;0.70;;;30.30;49.80;;;;;;5085041;28;20028;-58
2022/08/21 12:29:25;;;;;;;1.83;0.73;;;30.40;49.60;;;;;;5092080;28;20028;-58
2022/08/21 12:31:56;;;;;;;;;;;30.40;49.50;;;;;;5092984;28;20035;-58
2022/08/21 12:34:26;;;;;;;3.83;0.70;;;30.60;49.80;;;;;;5091785;28;19904;-58
2022/08/21 12:37:03;;;;;;;4.13;0.82;;;30.80;49.10;;;;;;5091194;28;20028;-58
2022/08/21 12:39:31;;;;;;;3.17;0.90;;;31.00;48.50;;;;;;5079196;28;20035;-58
2022/08/21 12:42:00;;;;;;;1.92;0.70;;;31.20;47.80;;;;;;5091601;28;20087;-59
2022/08/21 12:44:45;;;;;;;2.22;0.77;;;31.10;47.10;;;;;;5092483;28;20520;-58
2022/08/21 12:47:43;;;;;;;3.30;0.60;;;31.10;47.10;;;;;;5091863;28;20016;-58
2022/08/21 12:50:19;;;;;;;1.60;0.60;;;31.00;47.30;;;;;;5088576;28;20075;-58
2022/08/21 12:52:53;;;;;;;1.77;1.05;;;31.20;47.30;;;;;;5091770;28;20024;-59
2022/08/21 12:55:27;;;;;;;3.20;0.68;;;31.40;47.40;;;;;;5091746;28;20026;-58
2022/08/21 12:57:53;;;;;;;2.20;0.63;;;31.60;47.20;;;;;;5086640;28;20013;-58
2022/08/21 13:00:22;;;;;;;1.75;0.90;;;31.80;47.00;;;;;;5091553;28;20077;-58
2022/08/21 13:02:50;;;;;;;4.05;0.68;;;31.80;46.60;;;;;;5087682;28;20029;-58
2022/08/21 13:05:32;;;;;;;2.33;0.70;;;31.80;46.90;;;;;;5089430;28;20145;-58